Sunday, November 19, 2017, 10:24 AM GMT
Back to Local

CYYB, North Bay, Ont.

Location: , , Canada Lat: 46.35
Local Time: 10:24 AM GMT (10:24 GMT) Lon: -79.433
Time Zone: GMT Elev: 1174 ft

Show me the last for .
Show Decoded

2017-11-19 10:17 METAR CYYB 191017Z AUTO 35014G22KT 9SM OVC016 M04/M05 A2938 RMK SLP968 =
2017-11-19 10:00 METAR CYYB 191000Z AUTO 34015G24KT 9SM -SN BKN016 OVC022 M04/M05 A2937 RMK
                 SLP966 =
2017-11-19 09:00 METAR CYYB 190900Z AUTO 35015G22KT 9SM -SN BKN016 OVC021 M04/M05 A2936 RMK
                 SLP960 =
2017-11-19 08:34 METAR CYYB 190834Z AUTO 34014G19KT 6SM -SN BKN013 OVC021 M03/M05 A2936 RMK
                 SLP960 =
2017-11-19 08:14 METAR CYYB 190814Z AUTO 35011KT 5SM -SN OVC011 M04/M04 A2935 RMK SLP959 =
2017-11-19 08:00 METAR CYYB 190800Z AUTO 34011G17KT 9SM -SN OVC013 M04/M05 A2936 RMK SLP962 =
2017-11-19 07:40 METAR CYYB 190740Z AUTO 35011G17KT 6SM -SN BKN015 OVC027 M04/M05 A2935 RMK
                 PRESRR SLP958 =
2017-11-19 07:36 METAR CYYB 190736Z AUTO 35012G17KT 4SM -SN BKN013 OVC027 M04/M05 A2935 RMK
                 PRESRR SLP956 =
2017-11-19 07:16 METAR CYYB 190716Z AUTO 35013G19KT 3SM -SN SCT013 OVC040 M04/M05 A2933 RMK
                 SLP950 =
2017-11-19 07:00 METAR CYYB 190700Z AUTO 36013G20KT 2 1/2SM -SN FEW013 OVC038 M04/M05 A2932 RMK
                 SLP948 =
2017-11-19 06:42 METAR CYYB 190642Z AUTO 36015KT 2SM -SN FEW011 OVC026 M04/M05 A2932 RMK SLP947 =
2017-11-19 06:39 METAR CYYB 190639Z AUTO 36015KT 1 1/2SM -SN FEW011 OVC026 M04/M05 A2932 RMK
                 SLP947 =
2017-11-19 06:11 METAR CYYB 190611Z AUTO 01012G19KT 1 3/4SM -SN FEW011 OVC022 M04/M05 A2931 RMK
                 SLP945 =
2017-11-19 06:08 METAR CYYB 190608Z AUTO 36013G19KT 2 1/4SM -SN FEW011 OVC024 M04/M05 A2931 RMK
                 SLP945 =
2017-11-19 06:07 METAR CYYB 190607Z AUTO 36011G19KT 3SM -SN FEW011 OVC024 M04/M05 A2931 RMK
                 SLP945 =
2017-11-19 06:00 METAR CYYB 190600Z AUTO 01013G19KT 4SM -SN FEW009 OVC030 M04/M05 A2931 RMK
                 SLP945 =
2017-11-19 05:34 METAR CYYB 190534Z AUTO 36013G19KT 3SM -SN FEW011 OVC036 M04/M04 A2931 RMK
                 SLP943 =
2017-11-19 05:21 METAR CYYB 190521Z AUTO 35013G18KT 2SM -SN FEW011 OVC028 M03/M04 A2931 RMK
                 SLP945 =
2017-11-19 05:00 METAR CYYB 190500Z AUTO 36013G19KT 1 3/4SM -SN FEW009 OVC028 M03/M04 A2932 RMK
                 SLP948 =
2017-11-19 04:54 METAR CYYB 190454Z AUTO 36011KT 1 3/4SM -SN OVC026 M03/M04 A2932 RMK SLP949 =
2017-11-19 04:00 METAR CYYB 190400Z AUTO 36008G16KT 1SM R08/P6000FT/D -SN FEW006 OVC016 M03/M03
                 A2932 RMK SLP948 =
2017-11-19 03:00 METAR CYYB 190300Z 01010G19KT 1SM R08/4000VP6000FT/D -SN OVC011 M02/M03 A2934
                 RMK SN5SF3 SLP954 =
2017-11-19 02:00 METAR CYYB 190200Z 03005KT 360V070 1SM R08/P6000FT/U -SN OVC010 M02/M03 A2935
                 RMK SN4SF4 SLP958 =
2017-11-19 01:00 METAR CYYB 190100Z 02007KT 1SM R08/P6000FT/U -SN OVC010 M02/M02 A2936 RMK SN5SF3
                 PRESFR SLP961 =
2017-11-19 00:00 METAR CYYB 190000Z 03006KT 010V070 1 1/2SM -SN OVC010 M02/M02 A2937 RMK SN3SF5
                 SLP965 =
2017-11-18 23:24 METAR CYYB 182324Z 04007KT 1/2SM R08/6000FT/D SN VV010 M02/M02 A2937 RMK SN8
                 PRESFR SLP965 =
2017-11-18 23:00 METAR CYYB 182300Z 04008KT 1SM R08/P6000FT/N -SN OVC010 M02/M02 A2939 RMK SN4SF4
                 SLP973 =
2017-11-18 22:31 METAR CYYB 182231Z 03007KT 2SM -SN OVC005 M02/M02 A2940 RMK SF8 SLP975 =
2017-11-18 22:00 METAR CYYB 182200Z 04006KT 6SM -SN BKN005 OVC018 M02/M02 A2940 RMK SF6SC2 SLP974
                 =
2017-11-18 21:45 METAR CYYB 182145Z 05007KT 10SM -SN SCT005 OVC015 M02/M02 A2940 RMK SF3SC5
                 SLP973 =
2017-11-18 21:00 METAR CYYB 182100Z 04007KT 15SM OVC011 M01/M02 A2941 RMK SC8 SLP979 =
2017-11-18 20:00 METAR CYYB 182000Z 07007KT 15SM OVC011 M01/M02 A2941 RMK SC8 SLP976 =
2017-11-18 19:00 METAR CYYB 181900Z 07010KT 15SM OVC011 M01/M02 A2940 RMK SC8 PRESFR SLP974 =
2017-11-18 18:00 METAR CYYB 181800Z 09008KT 15SM OVC011 M01/M02 A2946 RMK SC8 SLP993 =
2017-11-18 17:00 METAR CYYB 181700Z 08010KT 15SM OVC010 M01/M02 A2947 RMK SC8 SLP000 =
2017-11-18 16:00 METAR CYYB 181600Z 09009KT 15SM FEW007 OVC014 M02/M02 A2951 RMK SF2SC6 SLP011 =
2017-11-18 15:36 METAR CYYB 181536Z 09010KT 15SM SCT007 OVC016 M02/M02 A2950 RMK SF4SC4 SLP007 =
2017-11-18 15:00 METAR CYYB 181500Z 10011KT 4SM -SN SCT007 OVC014 M02/M03 A2950 RMK SF3SC5 SLP008
                 =
2017-11-18 14:00 METAR CYYB 181400Z 09010KT 1 1/2SM -SN OVC014 M02/M03 A2955 RMK SC8 SLP028 =
2017-11-18 13:00 METAR CYYB 181300Z 10009KT 1SM R08/P6000FT/D -SN SCT007 OVC012 M03/M03 A2956 RMK
                 SF4SC4 SLP031 =
2017-11-18 12:00 METAR CYYB 181200Z 09009KT 1SM R08/P6000FT/D -SN OVC005 M03/M03 A2956 RMK SF8
                 SLP030 =
2017-11-18 11:41 METAR CYYB 181141Z 10008KT 1SM R08/6000FT/U -SN OVC004 M03/M03 A2957 RMK SF8
                 SLP033 =
2017-11-18 11:00 METAR CYYB 181100Z AUTO 10009KT 1SM R08/P6000FT/D -SN OVC006 M02/M03 A2957 RMK
                 SLP036 =
2017-11-18 10:38 METAR CYYB 181038Z AUTO 11012KT 1SM R08/P6000FT/U -SN BKN006 OVC011 M02/M03
                 A2958 RMK PRESFR SLP039 =

Support USWX by starting your Amazon purchase here.